Terminal Aerodrome Forecast
Issued by NWS North Platte, NE

Home | Current Version | Previous Version | Graphics & Text | Print | Product List | Glossary On
Versions: 1 2 3 4 5 6 7 8 9 10 11 12 13 14 15 16 17 18 19 20
983
FTUS43 KLBF 252137 AAB
TAFVTN
TAF AMD
KVTN 252137Z 2522/2618 01015KT P6SM VCSH BKN016 OVC023
     FM260000 35014G20KT P6SM VCSH OVC015
     FM260600 33014G20KT P6SM OVC008
     FM261500 32015G22KT P6SM BKN015=

USA.gov is the U.S. government's official web portal to all federal, state and local government web resources and services.